Terminal Aerodrome Forecast
Issued by NWS

Home | Current Version | Previous Version | Text Only | Print | Product List | Glossary On
Versions: 1 2 3 4 5 6 7 8 9 10 11 12 13
000
FTUS42 TJSJ 011127
TAFISX
TAF
TISX 011127Z 0112/0212 07007KT P6SM VCSH SCT025 SCT040
     FM011300 12012KT P6SM -RA SCT020 BKN040
     FM012300 08009KT P6SM VCSH SCT025=

USA.gov is the U.S. government's official web portal to all federal, state and local government web resources and services.